Time;durP1;ratioP1;P1;durP2;ratioP2;P2;SDS_P1;SDS_P2;PMS_P1;PMS_P2;Temp;Humidity;BMP_temperature;BMP_pressure;BME280_temperature;BME280_humidity;BME280_pressure;Samples;Min_cycle;Max_cycle;Signal;HPM_P1;HPM_P2
2022/05/09 00:01:43;;;;;;;10.93;9.77;;;;;10.00;94817.00;;;;7393026;19;20606;-77
2022/05/09 00:04:10;;;;;;;13.87;9.93;;;;;10.00;94810.00;;;;7393527;19;20231;-77
2022/05/09 00:06:45;;;;;;;12.20;9.50;;;;;10.10;94818.00;;;;7392129;19;20166;-77
2022/05/09 00:09:14;;;;;;;11.93;9.90;;;;;10.10;94807.00;;;;7392726;19;20208;-77
2022/05/09 00:11:42;;;;;;;11.87;9.00;;;;;10.10;94811.00;;;;7392084;19;20144;-77
2022/05/09 00:14:16;;;;;;;12.17;9.83;;;;;10.10;94808.00;;;;7391853;19;20469;-77
2022/05/09 00:16:43;;;;;;;12.07;9.63;;;;;10.00;94810.00;;;;7391883;19;20235;-78
2022/05/09 00:19:17;;;;;;;12.50;10.13;;;;;10.10;94808.00;;;;7395655;19;20160;-77
2022/05/09 00:21:52;;;;;;;10.90;9.80;;;;;10.00;94817.00;;;;7391894;19;20136;-78
2022/05/09 00:24:21;;;;;;;10.57;9.47;;;;;9.90;94811.00;;;;7388306;19;20140;-77
2022/05/09 00:26:50;;;;;;;9.97;8.50;;;;;9.80;94808.00;;;;7383946;19;20128;-77
2022/05/09 00:29:24;;;;;;;12.20;8.87;;;;;9.70;94811.00;;;;7389309;19;20165;-78
2022/05/09 00:31:56;;;;;;;12.23;8.90;;;;;9.70;94805.00;;;;7391457;19;20141;-76
2022/05/09 00:34:25;;;;;;;12.43;9.83;;;;;9.70;94813.00;;;;7394188;19;20179;-77
2022/05/09 00:36:59;;;;;;;12.10;9.77;;;;;9.70;94809.00;;;;7390847;19;20603;-77
2022/05/09 00:39:27;;;;;;;13.37;10.50;;;;;9.90;94811.00;;;;7391362;19;20524;-77
2022/05/09 00:41:54;;;;;;;15.83;11.10;;;;;10.00;94804.00;;;;7391706;19;20117;-77
2022/05/09 00:44:29;;;;;;;12.23;11.03;;;;;10.10;94809.00;;;;7391096;19;20477;-77
2022/05/09 00:46:56;;;;;;;12.47;11.17;;;;;10.10;94804.00;;;;7390341;19;20921;-77
2022/05/09 00:49:30;;;;;;;12.00;10.00;;;;;10.40;94805.00;;;;7398652;19;20129;-77
2022/05/09 00:52:10;;;;;;;16.60;12.63;;;;;10.40;94806.00;;;;7399389;19;20152;-78
2022/05/09 00:55:00;;;;;;;14.67;12.57;;;;;10.20;94807.00;;;;7395591;19;20175;-77
2022/05/09 00:57:50;;;;;;;16.03;13.17;;;;;10.50;94809.00;;;;7398584;19;20508;-77
2022/05/09 01:00:21;;;;;;;13.90;12.07;;;;;10.40;94810.00;;;;7398510;19;20485;-77
2022/05/09 01:03:13;;;;;;;13.63;12.23;;;;;10.20;94804.00;;;;7401273;19;20451;-77
2022/05/09 01:05:42;;;;;;;13.30;11.37;;;;;10.10;94806.00;;;;7397901;19;20129;-77
2022/05/09 01:08:17;;;;;;;14.17;11.40;;;;;9.90;94805.00;;;;7397831;19;20599;-78
2022/05/09 01:10:45;;;;;;;14.00;11.77;;;;;9.90;94813.00;;;;7399623;19;20138;-77
2022/05/09 01:13:15;;;;;;;13.77;12.33;;;;;9.80;94806.00;;;;7402059;19;20196;-77
2022/05/09 01:15:52;;;;;;;13.23;11.83;;;;;9.90;94802.00;;;;7397179;19;20136;-77
2022/05/09 01:18:20;;;;;;;13.60;12.10;;;;;10.00;94807.00;;;;7400298;19;20145;-77
2022/05/09 01:20:48;;;;;;;13.00;11.60;;;;;10.10;94811.00;;;;7398090;19;20137;-77
2022/05/09 01:23:22;;;;;;;12.80;11.43;;;;;10.20;94803.00;;;;7397746;19;20147;-77
2022/05/09 01:25:52;;;;;;;10.67;9.60;;;;;10.10;94803.00;;;;7396880;19;20487;-77
2022/05/09 01:28:19;;;;;;;12.60;9.63;;;;;9.90;94803.00;;;;7397194;19;20145;-77
2022/05/09 01:30:59;;;;;;;13.83;10.17;;;;;9.80;94803.00;;;;7396584;19;20500;-77
2022/05/09 01:33:41;;;;;;;13.13;10.50;;;;;9.80;94791.00;;;;7396687;19;20191;-77
2022/05/09 01:36:26;;;;;;;11.33;10.13;;;;;9.80;94795.00;;;;7397034;19;20149;-77
2022/05/09 01:38:59;;;;;;;11.17;10.03;;;;;9.90;94798.00;;;;7397761;19;20158;-77
2022/05/09 01:41:43;;;;;;;12.13;10.90;;;;;10.10;94798.00;;;;7397207;19;20144;-78
2022/05/09 01:44:13;;;;;;;16.83;11.67;;;;;10.00;94797.00;;;;7398093;19;20619;-77
2022/05/09 01:49:41;;;;;;;13.83;11.53;;;;;10.10;94804.00;;;;7395308;19;20144;-77
2022/05/09 01:52:16;;;;;;;12.50;11.20;;;;;10.00;94796.00;;;;7397751;19;20157;-77
2022/05/09 01:54:49;;;;;;;13.80;11.07;;;;;10.10;94802.00;;;;7394177;19;20172;-77
2022/05/09 01:57:24;;;;;;;12.77;11.33;;;;;10.10;94802.00;;;;7397470;19;20137;-77
2022/05/09 01:59:51;;;;;;;13.97;12.17;;;;;10.20;94794.00;;;;7395958;19;20623;-78
2022/05/09 02:02:21;;;;;;;14.33;12.60;;;;;10.10;94804.00;;;;7401811;19;20208;-77
2022/05/09 02:04:55;;;;;;;14.20;12.53;;;;;9.90;94807.00;;;;7398230;19;20137;-78
2022/05/09 02:07:23;;;;;;;12.40;10.93;;;;;9.80;94805.00;;;;7398925;19;20132;-77
2022/05/09 02:09:51;;;;;;;16.60;12.70;;;;;9.80;94805.00;;;;7397216;19;20668;-78
2022/05/09 02:12:27;;;;;;;12.60;11.30;;;;;10.10;94807.00;;;;7397335;19;20132;-77
2022/05/09 02:14:55;;;;;;;14.00;12.43;;;;;10.00;94806.00;;;;7394899;19;20140;-78
2022/05/09 02:17:22;;;;;;;15.60;13.00;;;;;10.10;94806.00;;;;7398511;19;20170;-78
2022/05/09 02:19:58;;;;;;;12.90;11.63;;;;;10.20;94808.00;;;;7396060;19;20151;-78
2022/05/09 02:22:26;;;;;;;14.30;11.33;;;;;10.20;94806.00;;;;7394451;19;20125;-78
2022/05/09 02:24:54;;;;;;;17.13;11.67;;;;;10.10;94810.00;;;;7396558;19;20124;-77
2022/05/09 02:27:28;;;;;;;16.40;12.73;;;;;10.20;94806.00;;;;7396249;19;20591;-78
2022/05/09 02:29:57;;;;;;;17.57;11.90;;;;;10.00;94814.00;;;;7395328;19;20167;-79
2022/05/09 02:32:24;;;;;;;11.93;10.47;;;;;9.80;94803.00;;;;7395292;19;20133;-78
2022/05/09 02:34:59;;;;;;;12.23;10.93;;;;;9.70;94801.00;;;;7393271;19;20140;-78
2022/05/09 02:37:26;;;;;;;14.07;11.33;;;;;9.50;94799.00;;;;7394441;19;20140;-78
2022/05/09 02:39:54;;;;;;;17.87;13.83;;;;;9.40;94795.00;;;;7394358;19;20651;-78
2022/05/09 02:42:29;;;;;;;16.17;13.53;;;;;9.50;94804.00;;;;7395413;19;20176;-78
2022/05/09 02:44:57;;;;;;;17.37;12.47;;;;;9.60;94801.00;;;;7396572;19;20173;-78
2022/05/09 02:47:26;;;;;;;14.80;13.30;;;;;9.70;94803.00;;;;7393919;19;20263;-78
2022/05/09 02:50:00;;;;;;;15.80;14.17;;;;;9.70;94803.00;;;;7393628;19;20147;-78
2022/05/09 02:52:28;;;;;;;17.53;15.30;;;;;9.60;94795.00;;;;7394890;19;20143;-78
2022/05/09 02:54:56;;;;;;;17.47;15.33;;;;;9.70;94803.00;;;;7391928;19;20513;-78
2022/05/09 02:57:30;;;;;;;16.23;14.53;;;;;9.60;94800.00;;;;7395062;19;20125;-78
2022/05/09 02:59:57;;;;;;;17.40;15.17;;;;;9.70;94802.00;;;;7395661;19;20474;-79
2022/05/09 03:02:26;;;;;;;22.03;16.47;;;;;9.70;94801.00;;;;7398909;19;20169;-78
2022/05/09 03:05:00;;;;;;;23.93;18.17;;;;;9.60;94803.00;;;;7393874;19;20602;-78
2022/05/09 03:07:28;;;;;;;19.87;17.57;;;;;9.70;94805.00;;;;7393391;19;20263;-78
2022/05/09 03:09:55;;;;;;;23.40;18.77;;;;;9.90;94806.00;;;;7394523;19;20464;-78
2022/05/09 03:12:30;;;;;;;22.37;17.50;;;;;10.10;94806.00;;;;7394322;19;20132;-78
2022/05/09 03:14:58;;;;;;;19.63;17.57;;;;;10.10;94799.00;;;;7393593;19;20167;-79
2022/05/09 03:17:25;;;;;;;20.40;17.70;;;;;10.00;94797.00;;;;7398119;19;20899;-77
2022/05/09 03:19:59;;;;;;;20.53;17.13;;;;;9.80;94794.00;;;;7397014;19;20591;-78
2022/05/09 03:22:27;;;;;;;20.73;16.47;;;;;9.60;94789.00;;;;7389990;19;20133;-77
2022/05/09 03:24:55;;;;;;;17.97;16.07;;;;;9.70;94795.00;;;;7393092;19;20156;-78
2022/05/09 03:27:29;;;;;;;19.67;15.67;;;;;9.80;94789.00;;;;7393368;19;20478;-78
2022/05/09 03:29:57;;;;;;;17.50;15.53;;;;;9.70;94792.00;;;;7392625;19;20616;-78
2022/05/09 03:32:24;;;;;;;18.40;16.37;;;;;9.60;94800.00;;;;7394547;19;20125;-78
2022/05/09 03:34:59;;;;;;;18.47;16.47;;;;;9.60;94788.00;;;;7394323;19;20602;-77
2022/05/09 03:37:26;;;;;;;16.67;14.93;;;;;9.50;94793.00;;;;7392161;19;20489;-77
2022/05/09 03:39:54;;;;;;;15.93;14.27;;;;;9.30;94784.00;;;;7392756;19;20141;-77
2022/05/09 03:42:28;;;;;;;16.10;14.37;;;;;9.10;94787.00;;;;7393223;19;20139;-78
2022/05/09 03:44:56;;;;;;;22.13;15.43;;;;;9.20;94794.00;;;;7392355;19;20646;-77
2022/05/09 03:47:24;;;;;;;16.77;15.03;;;;;9.30;94786.00;;;;7395700;19;20509;-77
2022/05/09 03:49:58;;;;;;;16.10;14.13;;;;;9.20;94792.00;;;;7392254;19;20124;-77
2022/05/09 03:52:26;;;;;;;17.73;15.83;;;;;9.10;94795.00;;;;7393159;19;20145;-78
2022/05/09 03:54:55;;;;;;;19.93;16.43;;;;;9.20;94794.00;;;;7390096;19;20619;-77
2022/05/09 03:57:36;;;;;;;19.97;16.87;;;;;9.30;94790.00;;;;7391959;19;20132;-77
2022/05/09 04:00:07;;;;;;;18.77;16.80;;;;;9.30;94790.00;;;;7391250;19;20592;-78
2022/05/09 04:02:43;;;;;;;22.60;15.60;;;;;9.20;94791.00;;;;7392125;19;20140;-77
2022/05/09 04:05:15;;;;;;;19.63;16.43;;;;;9.20;94793.00;;;;7392598;19;20141;-78
2022/05/09 04:07:52;;;;;;;17.13;14.73;;;;;9.30;94798.00;;;;7391378;19;20127;-77
2022/05/09 04:10:23;;;;;;;19.63;16.70;;;;;9.30;94799.00;;;;7391899;19;20204;-78
2022/05/09 04:12:58;;;;;;;17.57;15.70;;;;;9.40;94794.00;;;;7390899;19;20602;-78
2022/05/09 04:18:21;;;;;;;18.50;16.50;;;;;9.40;94800.00;;;;7392596;19;20148;-77
2022/05/09 04:20:51;;;;;;;17.83;15.93;;;;;9.40;94804.00;;;;7389805;19;20156;-77
2022/05/09 04:23:19;;;;;;;21.47;17.30;;;;;9.40;94799.00;;;;7394063;19;20177;-77
2022/05/09 04:25:53;;;;;;;19.87;17.77;;;;;9.40;94805.00;;;;7389328;19;20157;-78
2022/05/09 04:28:22;;;;;;;19.03;17.07;;;;;9.60;94807.00;;;;7392584;19;20169;-78
2022/05/09 04:30:50;;;;;;;20.87;18.27;;;;;9.80;94805.00;;;;7393074;19;20149;-78
2022/05/09 04:33:30;;;;;;;19.13;17.03;;;;;10.10;94802.00;;;;7391075;19;20184;-77
2022/05/09 04:35:58;;;;;;;18.97;16.63;;;;;10.20;94800.00;;;;7392669;19;20152;-77
2022/05/09 04:38:32;;;;;;;19.80;16.53;;;;;10.20;94797.00;;;;7391975;19;20141;-78
2022/05/09 04:40:59;;;;;;;19.97;16.60;;;;;10.30;94803.00;;;;7393411;19;20131;-78
2022/05/09 04:43:32;;;;;;;23.63;16.27;;;;;10.40;94799.00;;;;7389090;19;20145;-76
2022/05/09 04:46:06;;;;;;;15.67;14.03;;;;;10.40;94808.00;;;;7391470;19;20165;-77
2022/05/09 04:48:34;;;;;;;17.07;14.87;;;;;10.30;94808.00;;;;7393659;19;20509;-77
2022/05/09 04:51:02;;;;;;;17.73;14.93;;;;;10.40;94812.00;;;;7391328;19;20121;-77
2022/05/09 04:53:49;;;;;;;15.63;13.90;;;;;10.60;94802.00;;;;7389754;19;20173;-77
2022/05/09 04:56:24;;;;;;;14.30;12.83;;;;;10.70;94809.00;;;;7390729;19;20140;-77
2022/05/09 04:59:00;;;;;;;15.53;12.97;;;;;10.80;94810.00;;;;7393506;19;20149;-77
2022/05/09 05:01:31;;;;;;;17.77;13.03;;;;;10.90;94816.00;;;;7392392;19;20632;-74
2022/05/09 05:04:00;;;;;;;14.17;12.67;;;;;11.10;94818.00;;;;7393181;19;20504;-74
2022/05/09 05:06:37;;;;;;;14.60;12.43;;;;;11.20;94816.00;;;;7392565;19;20141;-75
2022/05/09 05:09:04;;;;;;;13.97;12.43;;;;;11.40;94810.00;;;;7395297;19;20156;-74
2022/05/09 05:11:34;;;;;;;14.50;12.27;;;;;11.60;94812.00;;;;7391837;19;20635;-75
2022/05/09 05:14:09;;;;;;;14.02;12.30;;;;;11.60;94809.00;;;;7389436;19;20765;-75
2022/05/09 05:19:40;;;;;;;12.75;11.45;;;;;12.00;94824.00;;;;7387837;19;20608;-75
2022/05/09 05:22:09;;;;;;;12.53;11.10;;;;;12.00;94821.00;;;;7385740;19;20606;-75
2022/05/09 05:24:47;;;;;;;12.30;11.10;;;;;12.20;94819.00;;;;7390766;19;20157;-75
2022/05/09 05:27:15;;;;;;;11.30;10.02;;;;;12.20;94820.00;;;;7390187;19;20137;-75
2022/05/09 05:29:42;;;;;;;10.90;9.43;;;;;12.30;94822.00;;;;7391253;19;20141;-73
2022/05/09 05:32:23;;;;;;;11.77;10.57;;;;;12.50;94822.00;;;;7391100;19;20148;-75
2022/05/09 05:34:51;;;;;;;10.65;9.65;;;;;12.60;94824.00;;;;7392537;19;20569;-75
2022/05/09 05:37:34;;;;;;;9.32;8.35;;;;;12.90;94834.00;;;;7400279;19;20441;-75
2022/05/09 05:40:06;;;;;;;12.65;9.95;;;;;13.30;94829.00;;;;7399042;19;20129;-75
2022/05/09 05:42:42;;;;;;;10.50;9.40;;;;;13.40;94827.00;;;;7398988;19;20129;-75
2022/05/09 05:45:12;;;;;;;11.18;10.00;;;;;13.50;94829.00;;;;7398047;19;20160;-74
2022/05/09 05:47:40;;;;;;;9.95;8.95;;;;;13.80;94831.00;;;;7397809;19;20137;-75
2022/05/09 05:50:16;;;;;;;10.13;8.07;;;;;13.90;94830.00;;;;7400165;19;20120;-76
2022/05/09 05:52:44;;;;;;;10.25;8.88;;;;;14.00;94833.00;;;;7401300;19;20469;-74
2022/05/09 05:55:12;;;;;;;11.27;8.60;;;;;14.20;94832.00;;;;7394727;19;20178;-75
2022/05/09 05:57:47;;;;;;;9.50;8.55;;;;;14.50;94830.00;;;;7398749;19;20451;-75
2022/05/09 06:00:21;;;;;;;9.75;8.55;;;;;14.60;94831.00;;;;7402123;19;20129;-75
2022/05/09 06:02:56;;;;;;;11.65;8.27;;;;;14.50;94830.00;;;;7399565;19;20463;-76
2022/05/09 06:05:30;;;;;;;9.00;8.13;;;;;14.70;94832.00;;;;7399922;19;20158;-75
2022/05/09 06:08:05;;;;;;;9.65;8.73;;;;;15.00;94833.00;;;;7400452;19;20143;-75
2022/05/09 06:10:32;;;;;;;9.07;8.18;;;;;15.40;94837.00;;;;7400838;19;20150;-75
2022/05/09 06:13:05;;;;;;;8.73;7.82;;;;;15.90;94832.00;;;;7401700;19;20481;-76
2022/05/09 06:15:41;;;;;;;8.13;7.40;;;;;16.20;94843.00;;;;7397259;19;20607;-75
2022/05/09 06:18:12;;;;;;;10.50;8.25;;;;;16.00;94839.00;;;;7399651;19;20587;-76
2022/05/09 06:20:47;;;;;;;9.02;7.97;;;;;16.20;94839.00;;;;7400727;19;20154;-75
2022/05/09 06:23:22;;;;;;;9.05;8.18;;;;;16.00;94839.00;;;;7399631;19;20136;-75
2022/05/09 06:25:58;;;;;;;10.77;7.68;;;;;16.10;94841.00;;;;7400553;19;20547;-75
2022/05/09 06:28:26;;;;;;;10.68;7.28;;;;;16.40;94841.00;;;;7399259;19;20216;-75
2022/05/09 06:30:54;;;;;;;8.95;7.65;;;;;16.40;94832.00;;;;7398571;19;20137;-75
2022/05/09 06:33:28;;;;;;;10.35;7.00;;;;;16.30;94842.00;;;;7398418;19;20140;-75
2022/05/09 06:35:58;;;;;;;10.18;7.60;;;;;16.30;94841.00;;;;7395107;19;20165;-75
2022/05/09 06:38:27;;;;;;;8.25;7.43;;;;;16.60;94840.00;;;;7398832;19;20129;-75
2022/05/09 06:41:01;;;;;;;9.15;8.20;;;;;16.90;94845.00;;;;7397339;19;20144;-76
2022/05/09 06:43:30;;;;;;;8.77;7.07;;;;;17.10;94838.00;;;;7399015;19;20137;-76
2022/05/09 06:45:58;;;;;;;7.97;7.22;;;;;17.00;94840.00;;;;7398034;19;20522;-76
2022/05/09 06:48:33;;;;;;;7.55;6.80;;;;;17.10;94843.00;;;;7400105;19;20120;-75
2022/05/09 06:51:01;;;;;;;8.73;6.63;;;;;17.70;94848.00;;;;7397578;19;20470;-75
2022/05/09 06:53:29;;;;;;;7.43;6.72;;;;;17.80;94842.00;;;;7398043;19;20245;-75
2022/05/09 06:56:11;;;;;;;7.72;6.93;;;;;17.90;94845.00;;;;7396983;19;20120;-76
2022/05/09 06:58:39;;;;;;;8.38;7.15;;;;;18.20;94839.00;;;;7397778;19;20129;-75
2022/05/09 07:01:18;;;;;;;7.68;6.88;;;;;18.30;94846.00;;;;7398401;19;20160;-76
2022/05/09 07:03:47;;;;;;;8.07;6.50;;;;;18.60;94845.00;;;;7399456;19;20141;-76
2022/05/09 07:06:21;;;;;;;7.50;6.78;;;;;18.50;94846.00;;;;7398117;19;20801;-76
2022/05/09 07:08:49;;;;;;;7.43;6.60;;;;;18.40;94852.00;;;;7398170;19;20137;-76
2022/05/09 07:11:17;;;;;;;7.50;6.80;;;;;18.50;94857.00;;;;7398203;19;20485;-77
2022/05/09 07:13:51;;;;;;;8.80;6.57;;;;;18.80;94856.00;;;;7398649;19;20129;-77
2022/05/09 07:16:19;;;;;;;7.07;6.38;;;;;18.90;94850.00;;;;7396803;19;20137;-75
2022/05/09 07:18:51;;;;;;;6.97;6.28;;;;;19.30;94851.00;;;;7398368;19;20125;-75
2022/05/09 07:21:27;;;;;;;7.07;6.20;;;;;19.90;94851.00;;;;7397364;19;20124;-77
2022/05/09 07:23:55;;;;;;;8.98;7.07;;;;;20.20;94850.00;;;;7395546;19;20133;-77
2022/05/09 07:26:23;;;;;;;10.57;7.10;;;;;20.60;94844.00;;;;7398075;19;20473;-75
2022/05/09 07:28:58;;;;;;;9.77;8.32;;;;;20.40;94852.00;;;;7397831;19;20143;-76
2022/05/09 07:31:26;;;;;;;10.73;8.05;;;;;20.50;94859.00;;;;7398093;19;20121;-75
2022/05/09 07:33:54;;;;;;;9.07;8.18;;;;;20.40;94860.00;;;;7395856;19;20176;-76
2022/05/09 07:36:28;;;;;;;8.32;6.90;;;;;20.60;94850.00;;;;7394542;19;20603;-75
2022/05/09 07:38:57;;;;;;;7.53;6.72;;;;;20.80;94854.00;;;;7397352;19;20147;-75
2022/05/09 07:41:25;;;;;;;9.95;6.47;;;;;20.80;94862.00;;;;7396509;19;20163;-75
2022/05/09 07:44:01;;;;;;;7.03;6.15;;;;;20.60;94857.00;;;;7397168;19;20152;-77
2022/05/09 07:46:29;;;;;;;7.30;6.55;;;;;20.70;94859.00;;;;7396776;19;20148;-77
2022/05/09 07:49:13;;;;;;;7.45;5.95;;;;;21.10;94867.00;;;;7395755;19;20145;-77
2022/05/09 07:51:47;;;;;;;7.15;6.05;;;;;21.00;94870.00;;;;7395976;19;20144;-76
2022/05/09 07:54:29;;;;;;;6.40;5.80;;;;;21.60;94868.00;;;;7395853;19;20627;-76
2022/05/09 07:57:04;;;;;;;6.80;6.10;;;;;22.10;94865.00;;;;7392591;19;20200;-76
2022/05/09 07:59:32;;;;;;;7.18;5.85;;;;;22.00;94869.00;;;;7395978;19;20204;-76
2022/05/09 08:02:00;;;;;;;5.80;5.20;;;;;21.80;94871.00;;;;7396133;19;20165;-76
2022/05/09 08:04:35;;;;;;;6.78;6.10;;;;;21.80;94867.00;;;;7395600;19;20489;-77
2022/05/09 08:07:03;;;;;;;6.68;5.97;;;;;21.40;94871.00;;;;7398655;19;20128;-76
2022/05/09 08:09:31;;;;;;;6.82;6.13;;;;;22.00;94862.00;;;;7396952;19;20552;-77
2022/05/09 08:12:06;;;;;;;7.90;6.00;;;;;22.70;94861.00;;;;7396750;19;20151;-77
2022/05/09 08:14:34;;;;;;;7.40;5.82;;;;;23.80;94862.00;;;;7395642;19;20129;-77
2022/05/09 08:17:02;;;;;;;6.88;5.40;;;;;23.30;94867.00;;;;7394027;19;20137;-77
2022/05/09 08:19:38;;;;;;;8.18;6.15;;;;;24.00;94861.00;;;;7395017;19;20156;-77
2022/05/09 08:22:09;;;;;;;7.35;5.63;;;;;23.90;94867.00;;;;7396737;19;20140;-77
2022/05/09 08:24:43;;;;;;;9.50;5.55;;;;;23.90;94873.00;;;;7395591;19;20152;-76
2022/05/09 08:27:17;;;;;;;7.20;6.28;;;;;23.80;94874.00;;;;7397245;19;20526;-77
2022/05/09 08:29:46;;;;;;;5.90;5.35;;;;;23.80;94878.00;;;;7400152;19;20140;-78
2022/05/09 08:32:14;;;;;;;5.65;5.18;;;;;23.50;94872.00;;;;7396239;19;20137;-77
2022/05/09 08:34:51;;;;;;;6.40;5.43;;;;;23.80;94879.00;;;;7395730;19;20132;-77
2022/05/09 08:37:19;;;;;;;7.40;5.60;;;;;24.60;94874.00;;;;7396463;19;20133;-76
2022/05/09 08:39:48;;;;;;;6.25;5.65;;;;;24.50;94875.00;;;;7396366;19;20144;-76
2022/05/09 08:42:48;;;;;;;7.53;5.82;;;;;25.10;94876.00;;;;7394493;19;20153;-77
2022/05/09 08:45:36;;;;;;;8.25;5.40;;;;;25.00;94875.00;;;;7395715;19;20137;-76
2022/05/09 08:48:26;;;;;;;6.10;5.43;;;;;24.90;94866.00;;;;7395817;19;20135;-78
2022/05/09 08:51:05;;;;;;;6.13;4.30;;;;;24.90;94875.00;;;;7394736;19;20196;-75
2022/05/09 08:53:59;;;;;;;6.57;5.38;;;;;24.00;94878.00;;;;7394930;19;20584;-75
2022/05/09 08:56:34;;;;;;;7.28;5.10;;;;;24.50;94879.00;;;;7394480;19;20164;-76
2022/05/09 08:59:14;;;;;;;5.28;4.88;;;;;24.80;94878.00;;;;7394364;19;20140;-74
2022/05/09 09:02:03;;;;;;;5.60;4.82;;;;;25.50;94882.00;;;;7392635;19;20143;-75
2022/05/09 09:04:38;;;;;;;5.30;4.43;;;;;25.40;94883.00;;;;7393491;19;20141;-77
2022/05/09 09:07:06;;;;;;;9.38;5.43;;;;;24.90;94887.00;;;;7393344;19;20137;-77
2022/05/09 09:10:02;;;;;;;5.60;4.30;;;;;25.30;94879.00;;;;7402051;19;20149;-78
2022/05/09 09:12:58;;;;;;;4.63;4.22;;;;;25.10;94895.00;;;;7401093;19;20148;-76
2022/05/09 09:15:45;;;;;;;5.32;4.63;;;;;25.00;94876.00;;;;7399917;19;20145;-78
2022/05/09 09:18:51;;;;;;;5.20;4.70;;;;;25.20;94887.00;;;;7399420;19;20129;-76
2022/05/09 09:21:44;;;;;;;5.95;4.65;;;;;24.60;94888.00;;;;7399181;19;20201;-77
2022/05/09 09:24:21;;;;;;;5.65;4.40;;;;;25.20;94871.00;;;;7399450;19;20148;-77
2022/05/09 09:26:59;;;;;;;4.78;4.22;;;;;24.50;94878.00;;;;7399401;19;20202;-77
2022/05/09 09:29:49;;;;;;;7.13;4.80;;;;;24.10;94884.00;;;;7397834;19;20208;-76
2022/05/09 09:32:19;;;;;;;6.72;4.88;;;;;24.60;94880.00;;;;7397696;19;20136;-78
2022/05/09 09:35:06;;;;;;;7.85;5.70;;;;;25.00;94879.00;;;;7396352;19;20227;-77
2022/05/09 09:37:56;;;;;;;5.43;4.60;;;;;25.20;94891.00;;;;7394077;19;20129;-77
2022/05/09 09:40:29;;;;;;;5.55;5.03;;;;;25.30;94884.00;;;;7402397;19;20173;-77
2022/05/09 09:42:57;;;;;;;5.30;4.90;;;;;25.50;94892.00;;;;7399693;19;20129;-77
2022/05/09 09:45:40;;;;;;;5.20;4.65;;;;;25.50;94880.00;;;;7399147;19;20137;-79
2022/05/09 09:48:19;;;;;;;6.47;5.85;;;;;25.80;94891.00;;;;7399927;19;20150;-77
2022/05/09 09:50:52;;;;;;;6.18;5.22;;;;;25.30;94887.00;;;;7399162;19;20133;-78
2022/05/09 09:53:56;;;;;;;10.35;5.30;;;;;26.70;94889.00;;;;7399814;19;20129;-77
2022/05/09 09:56:32;;;;;;;6.10;5.18;;;;;27.10;94877.00;;;;7399250;19;20176;-78
2022/05/09 09:59:18;;;;;;;5.30;4.80;;;;;27.30;94886.00;;;;7400355;19;20162;-77
2022/05/09 10:02:06;;;;;;;8.27;5.25;;;;;27.20;94879.00;;;;7400485;19;20117;-77
2022/05/09 10:04:41;;;;;;;5.95;5.30;;;;;27.50;94883.00;;;;7400385;19;20137;-77
2022/05/09 10:07:16;;;;;;;6.15;5.28;;;;;27.60;94878.00;;;;7400609;19;20141;-77
2022/05/09 10:10:17;;;;;;;5.13;4.63;;;;;26.80;94879.00;;;;7408047;19;20166;-77
2022/05/09 10:12:49;;;;;;;6.25;5.65;;;;;25.30;94880.00;;;;7398576;19;20161;-78
2022/05/09 10:15:35;;;;;;;9.70;6.00;;;;;25.40;94884.00;;;;7400350;19;20132;-80
2022/05/09 10:18:23;;;;;;;6.90;5.60;;;;;25.40;94874.00;;;;7401346;19;20487;-77
2022/05/09 10:27:24;;;;;;;10.00;6.20;;;;;24.20;94902.00;;;;7400019;19;20128;-76
2022/05/09 10:29:56;;;;;;;6.28;5.63;;;;;23.00;94877.00;;;;7399203;19;20137;-77
2022/05/09 10:33:00;;;;;;;6.57;5.90;;;;;23.10;94902.00;;;;7396345;19;20140;-77
2022/05/09 10:35:52;;;;;;;6.53;5.80;;;;;24.50;94903.00;;;;7397330;19;20137;-77
2022/05/09 10:38:32;;;;;;;10.85;5.38;;;;;25.30;94872.00;;;;7396729;19;20196;-77
2022/05/09 10:41:09;;;;;;;11.65;5.45;;;;;26.50;94859.00;;;;7396380;19;20161;-76
2022/05/09 10:43:56;;;;;;;8.32;5.30;;;;;27.30;94861.00;;;;7397270;19;20541;-77
2022/05/09 10:46:40;;;;;;;6.82;4.72;;;;;27.90;94855.00;;;;7398590;19;20630;-77
2022/05/09 10:49:20;;;;;;;8.32;4.72;;;;;28.40;94872.00;;;;7398383;19;20464;-79
2022/05/09 10:52:10;;;;;;;6.30;5.50;;;;;26.50;94881.00;;;;7393078;19;20136;-77
2022/05/09 10:55:32;;;;;;;6.60;5.93;;;;;24.80;94886.00;;;;7395601;19;20180;-76
2022/05/09 10:58:20;;;;;;;7.28;6.50;;;;;24.30;94890.00;;;;7397490;19;20484;-78
2022/05/09 11:01:09;;;;;;;7.88;6.28;;;;;23.90;94882.00;;;;7397038;19;20484;-79
2022/05/09 11:03:39;;;;;;;7.00;5.82;;;;;22.70;94889.00;;;;7397605;19;20141;-77
2022/05/09 11:06:39;;;;;;;11.20;6.80;;;;;22.80;94866.00;;;;7394485;19;20502;-78
2022/05/09 11:09:47;;;;;;;7.32;6.63;;;;;23.30;94885.00;;;;7396033;19;20137;-77
2022/05/09 11:13:02;;;;;;;10.40;7.05;;;;;22.40;94880.00;;;;7396368;19;20152;-77
2022/05/09 11:15:58;;;;;;;7.72;7.03;;;;;22.60;94852.00;;;;7391469;19;20157;-77
2022/05/09 11:19:06;;;;;;;7.47;5.93;;;;;24.50;94886.00;;;;7392556;19;20868;-77
2022/05/09 11:21:53;;;;;;;7.30;6.18;;;;;24.00;94888.00;;;;7392480;19;20622;-77
2022/05/09 11:24:56;;;;;;;11.13;5.55;;;;;23.10;94862.00;;;;7391350;19;20144;-77
2022/05/09 11:27:30;;;;;;;6.35;5.75;;;;;25.30;94852.00;;;;7387733;19;20121;-77
2022/05/09 11:30:11;;;;;;;9.32;6.55;;;;;27.20;94872.00;;;;7389885;19;20606;-77
2022/05/09 11:32:41;;;;;;;7.43;6.50;;;;;26.30;94845.00;;;;7391077;19;20181;-77
2022/05/09 11:35:34;;;;;;;12.63;6.68;;;;;25.60;94870.00;;;;7389650;19;20129;-77
2022/05/09 11:38:19;;;;;;;7.65;5.57;;;;;24.60;94839.00;;;;7388922;19;20602;-77
2022/05/09 11:41:05;;;;;;;5.57;5.07;;;;;24.80;94860.00;;;;7391579;19;20733;-77
2022/05/09 11:44:14;;;;;;;6.00;5.40;;;;;23.80;94839.00;;;;7391844;19;20650;-76
2022/05/09 11:47:13;;;;;;;6.00;5.38;;;;;25.00;94843.00;;;;7387804;19;20161;-76
2022/05/09 11:50:03;;;;;;;6.40;5.90;;;;;24.70;94870.00;;;;7390373;19;20621;-76
2022/05/09 11:52:44;;;;;;;7.03;6.18;;;;;25.10;94845.00;;;;7389111;19;20145;-76
2022/05/09 11:55:22;;;;;;;7.78;6.93;;;;;26.70;94831.00;;;;7387930;19;20152;-78
2022/05/09 11:58:00;;;;;;;8.25;6.65;;;;;27.70;94829.00;;;;7387189;19;20136;-76
2022/05/09 12:00:28;;;;;;;5.90;5.35;;;;;27.10;94830.00;;;;7390305;19;20133;-76
2022/05/09 12:03:10;;;;;;;5.88;5.35;;;;;26.00;94850.00;;;;7387411;19;20136;-77
2022/05/09 12:06:00;;;;;;;7.10;5.32;;;;;25.20;94856.00;;;;7392449;19;20151;-78
2022/05/09 12:08:48;;;;;;;8.88;5.18;;;;;24.70;94830.00;;;;7394530;19;20492;-81
2022/05/09 12:11:29;;;;;;;5.90;5.30;;;;;25.10;94842.00;;;;7392209;19;20154;-76
2022/05/09 12:14:01;;;;;;;6.72;5.07;;;;;25.70;94840.00;;;;7395876;19;20605;-77
2022/05/09 12:16:35;;;;;;;5.75;4.78;;;;;25.70;94823.00;;;;7396557;19;20157;-76
2022/05/09 12:19:27;;;;;;;5.38;4.72;;;;;27.10;94816.00;;;;7393453;19;20627;-75
2022/05/09 12:22:34;;;;;;;5.53;4.38;;;;;28.20;94829.00;;;;7394342;19;20158;-77
2022/05/09 12:25:06;;;;;;;6.47;5.07;;;;;27.90;94846.00;;;;7393923;19;20153;-76
2022/05/09 12:28:03;;;;;;;5.63;5.10;;;;;25.50;94819.00;;;;7395418;19;20152;-77
2022/05/09 12:30:48;;;;;;;6.50;5.18;;;;;27.40;94809.00;;;;7396290;19;20121;-76
2022/05/09 12:33:44;;;;;;;10.38;5.65;;;;;28.10;94830.00;;;;7394402;19;20185;-77
2022/05/09 12:36:31;;;;;;;7.78;4.70;;;;;25.80;94842.00;;;;7395926;19;20152;-76
2022/05/09 12:39:12;;;;;;;6.18;4.50;;;;;26.20;94801.00;;;;7397411;19;20127;-77
2022/05/09 12:41:45;;;;;;;9.18;4.60;;;;;27.20;94793.00;;;;7393976;19;20178;-78
2022/05/09 12:44:31;;;;;;;5.05;4.50;;;;;27.40;94803.00;;;;7399227;19;20161;-80
2022/05/09 12:47:07;;;;;;;5.20;4.25;;;;;27.80;94803.00;;;;7405284;19;20595;-76
2022/05/09 12:49:54;;;;;;;4.55;4.15;;;;;27.60;94797.00;;;;7402127;19;20140;-78
2022/05/09 12:52:27;;;;;;;7.47;4.70;;;;;28.70;94801.00;;;;7401412;19;20149;-78
2022/05/09 12:58:29;;;;;;;8.77;5.05;;;;;27.20;94821.00;;;;7397805;19;20136;-78
2022/05/09 13:01:11;;;;;;;6.68;4.68;;;;;25.10;94831.00;;;;7400910;19;20580;-77
2022/05/09 13:04:05;;;;;;;10.57;5.35;;;;;23.80;94841.00;;;;7400586;19;20137;-79
2022/05/09 13:06:48;;;;;;;8.25;5.18;;;;;22.70;94835.00;;;;7400341;19;20159;-77
2022/05/09 13:09:34;;;;;;;5.82;5.07;;;;;22.40;94829.00;;;;7398900;19;20132;-77
2022/05/09 13:12:22;;;;;;;6.45;5.80;;;;;22.00;94837.00;;;;7396155;19;20133;-76
2022/05/09 13:14:55;;;;;;;8.50;5.47;;;;;22.10;94809.00;;;;7399538;19;20124;-77